sensor_id;sensor_type;location;lat;lon;timestamp;temperature;humidity
38428;DHT22;24211;49.980;19.776;2023-01-09T00:01:27;4.60;99.90
38428;DHT22;24211;49.980;19.776;2023-01-09T00:04:04;4.60;99.90
38428;DHT22;24211;49.980;19.776;2023-01-09T00:06:32;4.60;99.90
38428;DHT22;24211;49.980;19.776;2023-01-09T00:08:59;4.60;99.90
38428;DHT22;24211;49.980;19.776;2023-01-09T00:11:27;4.60;99.90
38428;DHT22;24211;49.980;19.776;2023-01-09T00:13:54;4.60;99.90
38428;DHT22;24211;49.980;19.776;2023-01-09T00:16:21;4.60;99.90
38428;DHT22;24211;49.980;19.776;2023-01-09T00:18:48;4.60;99.90
38428;DHT22;24211;49.980;19.776;2023-01-09T00:21:16;4.50;99.90
38428;DHT22;24211;49.980;19.776;2023-01-09T00:23:43;4.50;99.90
38428;DHT22;24211;49.980;19.776;2023-01-09T00:26:13;4.60;99.90
38428;DHT22;24211;49.980;19.776;2023-01-09T00:28:47;4.50;99.90
38428;DHT22;24211;49.980;19.776;2023-01-09T00:31:17;4.60;99.90
38428;DHT22;24211;49.980;19.776;2023-01-09T00:34:00;4.50;99.90
38428;DHT22;24211;49.980;19.776;2023-01-09T00:36:31;4.50;99.90
38428;DHT22;24211;49.980;19.776;2023-01-09T00:38:58;4.50;99.90
38428;DHT22;24211;49.980;19.776;2023-01-09T00:41:34;4.40;99.90
38428;DHT22;24211;49.980;19.776;2023-01-09T00:44:19;4.40;99.90
38428;DHT22;24211;49.980;19.776;2023-01-09T00:46:58;4.40;99.90
38428;DHT22;24211;49.980;19.776;2023-01-09T00:49:31;4.40;99.90
38428;DHT22;24211;49.980;19.776;2023-01-09T00:52:00;4.40;99.90
38428;DHT22;24211;49.980;19.776;2023-01-09T00:54:29;4.40;99.90
38428;DHT22;24211;49.980;19.776;2023-01-09T00:56:58;4.30;99.90
38428;DHT22;24211;49.980;19.776;2023-01-09T00:59:28;4.30;99.90
38428;DHT22;24211;49.980;19.776;2023-01-09T01:01:56;4.30;99.90
38428;DHT22;24211;49.980;19.776;2023-01-09T01:04:23;4.20;99.90
38428;DHT22;24211;49.980;19.776;2023-01-09T01:07:09;4.20;99.90
38428;DHT22;24211;49.980;19.776;2023-01-09T01:09:55;4.20;99.90
38428;DHT22;24211;49.980;19.776;2023-01-09T01:12:22;4.20;99.90
38428;DHT22;24211;49.980;19.776;2023-01-09T01:14:51;4.20;99.90
38428;DHT22;24211;49.980;19.776;2023-01-09T01:17:19;4.20;99.90
38428;DHT22;24211;49.980;19.776;2023-01-09T01:19:46;4.10;99.90
38428;DHT22;24211;49.980;19.776;2023-01-09T01:22:13;4.10;99.90
38428;DHT22;24211;49.980;19.776;2023-01-09T01:24:40;4.10;99.90
38428;DHT22;24211;49.980;19.776;2023-01-09T01:27:08;4.10;99.90
38428;DHT22;24211;49.980;19.776;2023-01-09T01:29:34;4.10;99.90
38428;DHT22;24211;49.980;19.776;2023-01-09T01:32:02;4.10;99.90
38428;DHT22;24211;49.980;19.776;2023-01-09T01:34:30;4.00;99.90
38428;DHT22;24211;49.980;19.776;2023-01-09T01:36:57;4.00;99.90
38428;DHT22;24211;49.980;19.776;2023-01-09T01:39:24;4.00;99.90
38428;DHT22;24211;49.980;19.776;2023-01-09T01:41:51;4.00;99.90
38428;DHT22;24211;49.980;19.776;2023-01-09T01:48:12;4.00;99.90
38428;DHT22;24211;49.980;19.776;2023-01-09T01:50:51;4.00;99.90
38428;DHT22;24211;49.980;19.776;2023-01-09T01:53:26;4.00;99.90
38428;DHT22;24211;49.980;19.776;2023-01-09T01:56:26;4.00;99.90
38428;DHT22;24211;49.980;19.776;2023-01-09T01:59:07;4.00;99.90
38428;DHT22;24211;49.980;19.776;2023-01-09T02:01:36;4.00;99.90
38428;DHT22;24211;49.980;19.776;2023-01-09T02:04:07;4.00;99.90
38428;DHT22;24211;49.980;19.776;2023-01-09T02:06:36;4.00;99.90
38428;DHT22;24211;49.980;19.776;2023-01-09T02:09:05;4.00;99.90
38428;DHT22;24211;49.980;19.776;2023-01-09T02:11:33;3.90;99.90
38428;DHT22;24211;49.980;19.776;2023-01-09T02:14:01;4.00;99.90
38428;DHT22;24211;49.980;19.776;2023-01-09T02:17:09;4.00;99.90
38428;DHT22;24211;49.980;19.776;2023-01-09T02:26:22;4.00;99.90
38428;DHT22;24211;49.980;19.776;2023-01-09T02:34:36;4.00;99.90
38428;DHT22;24211;49.980;19.776;2023-01-09T02:37:44;4.00;99.90
38428;DHT22;24211;49.980;19.776;2023-01-09T02:40:49;4.00;99.90
38428;DHT22;24211;49.980;19.776;2023-01-09T02:43:19;4.00;99.90
38428;DHT22;24211;49.980;19.776;2023-01-09T02:45:47;4.00;99.90
38428;DHT22;24211;49.980;19.776;2023-01-09T02:48:14;3.90;99.90
38428;DHT22;24211;49.980;19.776;2023-01-09T02:50:49;3.90;99.90
38428;DHT22;24211;49.980;19.776;2023-01-09T02:53:43;4.00;99.90
38428;DHT22;24211;49.980;19.776;2023-01-09T03:07:59;3.90;99.90
38428;DHT22;24211;49.980;19.776;2023-01-09T03:13:21;3.90;99.90
38428;DHT22;24211;49.980;19.776;2023-01-09T03:15:53;3.90;99.90
38428;DHT22;24211;49.980;19.776;2023-01-09T03:18:27;3.90;99.90
38428;DHT22;24211;49.980;19.776;2023-01-09T03:20:57;3.90;99.90
38428;DHT22;24211;49.980;19.776;2023-01-09T03:23:24;3.90;99.90
38428;DHT22;24211;49.980;19.776;2023-01-09T03:25:52;3.90;99.90
38428;DHT22;24211;49.980;19.776;2023-01-09T03:28:27;3.90;99.90
38428;DHT22;24211;49.980;19.776;2023-01-09T03:30:55;3.80;99.90
38428;DHT22;24211;49.980;19.776;2023-01-09T03:33:22;3.80;99.90
38428;DHT22;24211;49.980;19.776;2023-01-09T03:35:49;3.80;99.90
38428;DHT22;24211;49.980;19.776;2023-01-09T03:38:16;3.70;99.90
38428;DHT22;24211;49.980;19.776;2023-01-09T03:40:43;3.70;99.90
38428;DHT22;24211;49.980;19.776;2023-01-09T03:43:10;3.80;99.90
38428;DHT22;24211;49.980;19.776;2023-01-09T03:45:38;3.60;99.90
38428;DHT22;24211;49.980;19.776;2023-01-09T03:48:05;3.70;99.90
38428;DHT22;24211;49.980;19.776;2023-01-09T03:50:32;3.80;99.90
38428;DHT22;24211;49.980;19.776;2023-01-09T03:53:00;3.80;99.90
38428;DHT22;24211;49.980;19.776;2023-01-09T03:55:29;3.80;99.90
38428;DHT22;24211;49.980;19.776;2023-01-09T03:57:56;3.80;99.90
38428;DHT22;24211;49.980;19.776;2023-01-09T04:00:23;3.80;99.90
38428;DHT22;24211;49.980;19.776;2023-01-09T04:02:50;3.80;99.90
38428;DHT22;24211;49.980;19.776;2023-01-09T04:05:18;3.50;99.90
38428;DHT22;24211;49.980;19.776;2023-01-09T04:07:45;3.30;99.90
38428;DHT22;24211;49.980;19.776;2023-01-09T04:10:12;3.50;99.90
38428;DHT22;24211;49.980;19.776;2023-01-09T04:12:39;3.60;99.90
38428;DHT22;24211;49.980;19.776;2023-01-09T04:15:07;3.70;99.90
38428;DHT22;24211;49.980;19.776;2023-01-09T04:17:34;3.70;99.90
38428;DHT22;24211;49.980;19.776;2023-01-09T04:20:01;3.80;99.90
38428;DHT22;24211;49.980;19.776;2023-01-09T04:22:28;3.80;99.90
38428;DHT22;24211;49.980;19.776;2023-01-09T04:24:57;3.80;99.90
38428;DHT22;24211;49.980;19.776;2023-01-09T04:27:24;3.80;99.90
38428;DHT22;24211;49.980;19.776;2023-01-09T04:29:51;3.80;99.90
38428;DHT22;24211;49.980;19.776;2023-01-09T04:32:18;3.80;99.90
38428;DHT22;24211;49.980;19.776;2023-01-09T04:34:46;3.70;99.90
38428;DHT22;24211;49.980;19.776;2023-01-09T04:37:13;3.70;99.90
38428;DHT22;24211;49.980;19.776;2023-01-09T04:39:40;3.60;99.90
38428;DHT22;24211;49.980;19.776;2023-01-09T04:42:10;3.70;99.90
38428;DHT22;24211;49.980;19.776;2023-01-09T04:44:38;3.70;99.90
38428;DHT22;24211;49.980;19.776;2023-01-09T04:47:05;3.80;99.90
38428;DHT22;24211;49.980;19.776;2023-01-09T04:49:32;3.80;99.90
38428;DHT22;24211;49.980;19.776;2023-01-09T04:51:59;3.80;99.90
38428;DHT22;24211;49.980;19.776;2023-01-09T04:54:28;3.80;99.90
38428;DHT22;24211;49.980;19.776;2023-01-09T04:56:55;3.80;99.90
38428;DHT22;24211;49.980;19.776;2023-01-09T04:59:22;3.80;99.90
38428;DHT22;24211;49.980;19.776;2023-01-09T05:01:49;3.80;99.90
38428;DHT22;24211;49.980;19.776;2023-01-09T05:04:18;3.80;99.90
38428;DHT22;24211;49.980;19.776;2023-01-09T05:06:45;3.80;99.90
38428;DHT22;24211;49.980;19.776;2023-01-09T05:09:13;3.80;99.90
38428;DHT22;24211;49.980;19.776;2023-01-09T05:11:40;3.80;99.90
38428;DHT22;24211;49.980;19.776;2023-01-09T05:14:08;3.70;99.90
38428;DHT22;24211;49.980;19.776;2023-01-09T05:16:35;3.70;99.90
38428;DHT22;24211;49.980;19.776;2023-01-09T05:19:03;3.80;99.90
38428;DHT22;24211;49.980;19.776;2023-01-09T05:21:30;3.80;99.90
38428;DHT22;24211;49.980;19.776;2023-01-09T05:23:57;3.80;99.90
38428;DHT22;24211;49.980;19.776;2023-01-09T05:26:24;3.80;99.90
38428;DHT22;24211;49.980;19.776;2023-01-09T05:28:54;3.80;99.90
38428;DHT22;24211;49.980;19.776;2023-01-09T05:31:23;3.80;99.90
38428;DHT22;24211;49.980;19.776;2023-01-09T05:33:52;3.80;99.90
38428;DHT22;24211;49.980;19.776;2023-01-09T05:36:19;3.80;99.90
38428;DHT22;24211;49.980;19.776;2023-01-09T05:38:46;3.80;99.90
38428;DHT22;24211;49.980;19.776;2023-01-09T05:41:13;3.80;99.90
38428;DHT22;24211;49.980;19.776;2023-01-09T05:43:41;3.80;99.90
38428;DHT22;24211;49.980;19.776;2023-01-09T05:46:08;3.80;99.90
38428;DHT22;24211;49.980;19.776;2023-01-09T05:48:35;3.80;99.90
38428;DHT22;24211;49.980;19.776;2023-01-09T05:51:03;3.80;99.90
38428;DHT22;24211;49.980;19.776;2023-01-09T05:53:30;3.80;99.90
38428;DHT22;24211;49.980;19.776;2023-01-09T05:55:57;3.80;99.90
38428;DHT22;24211;49.980;19.776;2023-01-09T05:58:25;3.80;99.90
38428;DHT22;24211;49.980;19.776;2023-01-09T06:00:52;3.80;99.90
38428;DHT22;24211;49.980;19.776;2023-01-09T06:03:20;3.80;99.90
38428;DHT22;24211;49.980;19.776;2023-01-09T06:05:47;3.80;99.90
38428;DHT22;24211;49.980;19.776;2023-01-09T06:08:14;3.80;99.90
38428;DHT22;24211;49.980;19.776;2023-01-09T06:10:41;3.80;99.90
38428;DHT22;24211;49.980;19.776;2023-01-09T06:13:08;3.80;99.90
38428;DHT22;24211;49.980;19.776;2023-01-09T06:15:35;3.80;99.90
38428;DHT22;24211;49.980;19.776;2023-01-09T06:18:03;3.80;99.90
38428;DHT22;24211;49.980;19.776;2023-01-09T06:20:30;3.80;99.90
38428;DHT22;24211;49.980;19.776;2023-01-09T06:22:58;3.80;99.90
38428;DHT22;24211;49.980;19.776;2023-01-09T06:25:25;3.90;99.90
38428;DHT22;24211;49.980;19.776;2023-01-09T06:27:53;3.90;99.90
38428;DHT22;24211;49.980;19.776;2023-01-09T06:30:20;3.90;99.90
38428;DHT22;24211;49.980;19.776;2023-01-09T06:32:48;3.90;99.90
38428;DHT22;24211;49.980;19.776;2023-01-09T06:35:15;3.90;99.90
38428;DHT22;24211;49.980;19.776;2023-01-09T06:37:49;3.90;99.90
38428;DHT22;24211;49.980;19.776;2023-01-09T06:40:17;3.90;99.90
38428;DHT22;24211;49.980;19.776;2023-01-09T06:42:47;3.90;99.90
38428;DHT22;24211;49.980;19.776;2023-01-09T06:45:15;3.90;99.90
38428;DHT22;24211;49.980;19.776;2023-01-09T06:47:42;3.90;99.90
38428;DHT22;24211;49.980;19.776;2023-01-09T06:50:10;3.90;99.90
38428;DHT22;24211;49.980;19.776;2023-01-09T06:52:38;3.90;99.90
38428;DHT22;24211;49.980;19.776;2023-01-09T06:55:06;3.90;99.90
38428;DHT22;24211;49.980;19.776;2023-01-09T06:57:34;3.90;99.90
38428;DHT22;24211;49.980;19.776;2023-01-09T07:00:03;3.90;99.90
38428;DHT22;24211;49.980;19.776;2023-01-09T07:02:30;3.80;99.90
38428;DHT22;24211;49.980;19.776;2023-01-09T07:04:58;3.80;99.90
38428;DHT22;24211;49.980;19.776;2023-01-09T07:07:25;3.80;99.90
38428;DHT22;24211;49.980;19.776;2023-01-09T07:09:52;3.80;99.90
38428;DHT22;24211;49.980;19.776;2023-01-09T07:12:20;3.80;99.90
38428;DHT22;24211;49.980;19.776;2023-01-09T07:14:47;3.90;99.90
38428;DHT22;24211;49.980;19.776;2023-01-09T07:17:14;3.90;99.90
38428;DHT22;24211;49.980;19.776;2023-01-09T07:19:41;3.90;99.90
38428;DHT22;24211;49.980;19.776;2023-01-09T07:22:09;3.80;99.90
38428;DHT22;24211;49.980;19.776;2023-01-09T07:24:36;3.90;99.90
38428;DHT22;24211;49.980;19.776;2023-01-09T07:27:04;3.80;99.90
38428;DHT22;24211;49.980;19.776;2023-01-09T07:29:31;3.80;99.90
38428;DHT22;24211;49.980;19.776;2023-01-09T07:31:58;3.80;99.90
38428;DHT22;24211;49.980;19.776;2023-01-09T07:34:25;3.90;99.90
38428;DHT22;24211;49.980;19.776;2023-01-09T07:36:53;3.90;99.90
38428;DHT22;24211;49.980;19.776;2023-01-09T07:39:20;3.90;99.90
38428;DHT22;24211;49.980;19.776;2023-01-09T07:41:47;3.90;99.90
38428;DHT22;24211;49.980;19.776;2023-01-09T07:44:14;3.70;99.90
38428;DHT22;24211;49.980;19.776;2023-01-09T07:46:42;3.80;99.90
38428;DHT22;24211;49.980;19.776;2023-01-09T07:49:09;3.80;99.90
38428;DHT22;24211;49.980;19.776;2023-01-09T07:51:36;3.90;99.90
38428;DHT22;24211;49.980;19.776;2023-01-09T07:54:10;3.80;99.90
38428;DHT22;24211;49.980;19.776;2023-01-09T07:56:39;3.60;99.90
38428;DHT22;24211;49.980;19.776;2023-01-09T07:59:06;3.70;99.90
38428;DHT22;24211;49.980;19.776;2023-01-09T08:01:34;3.50;99.90
38428;DHT22;24211;49.980;19.776;2023-01-09T08:04:02;3.60;99.90
38428;DHT22;24211;49.980;19.776;2023-01-09T08:06:30;3.70;99.90
38428;DHT22;24211;49.980;19.776;2023-01-09T08:08:58;3.80;99.90
38428;DHT22;24211;49.980;19.776;2023-01-09T08:11:27;3.80;99.90
38428;DHT22;24211;49.980;19.776;2023-01-09T08:13:54;3.90;99.90
38428;DHT22;24211;49.980;19.776;2023-01-09T08:16:21;3.90;99.90
38428;DHT22;24211;49.980;19.776;2023-01-09T08:18:49;3.90;99.90
38428;DHT22;24211;49.980;19.776;2023-01-09T08:21:16;3.90;99.90
38428;DHT22;24211;49.980;19.776;2023-01-09T08:23:43;4.00;99.90
38428;DHT22;24211;49.980;19.776;2023-01-09T08:26:11;4.00;99.90
38428;DHT22;24211;49.980;19.776;2023-01-09T08:28:38;4.00;99.90
38428;DHT22;24211;49.980;19.776;2023-01-09T08:31:05;4.00;99.90
38428;DHT22;24211;49.980;19.776;2023-01-09T08:33:32;4.00;99.90
38428;DHT22;24211;49.980;19.776;2023-01-09T08:35:59;4.00;99.90
38428;DHT22;24211;49.980;19.776;2023-01-09T08:38:31;4.00;99.90
38428;DHT22;24211;49.980;19.776;2023-01-09T08:40:58;4.00;99.90
38428;DHT22;24211;49.980;19.776;2023-01-09T08:43:46;4.00;99.90
38428;DHT22;24211;49.980;19.776;2023-01-09T08:46:32;4.00;99.90
38428;DHT22;24211;49.980;19.776;2023-01-09T08:49:19;4.10;99.90
38428;DHT22;24211;49.980;19.776;2023-01-09T08:51:47;4.10;99.90
38428;DHT22;24211;49.980;19.776;2023-01-09T08:54:14;4.00;99.90
38428;DHT22;24211;49.980;19.776;2023-01-09T08:56:41;4.10;99.90
38428;DHT22;24211;49.980;19.776;2023-01-09T08:59:09;4.10;99.90
38428;DHT22;24211;49.980;19.776;2023-01-09T09:01:36;4.10;99.90
38428;DHT22;24211;49.980;19.776;2023-01-09T09:04:04;4.20;99.90
38428;DHT22;24211;49.980;19.776;2023-01-09T09:06:32;4.20;99.90
38428;DHT22;24211;49.980;19.776;2023-01-09T09:09:00;4.20;99.90
38428;DHT22;24211;49.980;19.776;2023-01-09T09:11:32;4.30;99.90
38428;DHT22;24211;49.980;19.776;2023-01-09T09:14:00;4.30;99.90
38428;DHT22;24211;49.980;19.776;2023-01-09T09:16:51;4.30;99.90
38428;DHT22;24211;49.980;19.776;2023-01-09T09:19:19;4.40;99.90
38428;DHT22;24211;49.980;19.776;2023-01-09T09:21:49;4.40;99.90
38428;DHT22;24211;49.980;19.776;2023-01-09T09:24:17;4.40;99.90
38428;DHT22;24211;49.980;19.776;2023-01-09T09:26:44;4.30;99.90
38428;DHT22;24211;49.980;19.776;2023-01-09T09:29:12;4.40;99.90
38428;DHT22;24211;49.980;19.776;2023-01-09T09:31:39;4.20;99.90
38428;DHT22;24211;49.980;19.776;2023-01-09T09:34:06;4.30;99.90
38428;DHT22;24211;49.980;19.776;2023-01-09T09:36:33;4.40;99.90
38428;DHT22;24211;49.980;19.776;2023-01-09T09:39:01;4.50;99.90
38428;DHT22;24211;49.980;19.776;2023-01-09T09:44:50;4.40;99.90
38428;DHT22;24211;49.980;19.776;2023-01-09T09:50:43;4.50;99.90
38428;DHT22;24211;49.980;19.776;2023-01-09T09:53:35;4.50;99.90
38428;DHT22;24211;49.980;19.776;2023-01-09T09:56:10;4.70;99.90
38428;DHT22;24211;49.980;19.776;2023-01-09T09:58:53;4.90;99.90
38428;DHT22;24211;49.980;19.776;2023-01-09T10:01:39;4.90;99.90
38428;DHT22;24211;49.980;19.776;2023-01-09T10:04:14;4.90;99.90
38428;DHT22;24211;49.980;19.776;2023-01-09T10:06:47;4.90;99.90
38428;DHT22;24211;49.980;19.776;2023-01-09T10:09:31;4.90;99.90
38428;DHT22;24211;49.980;19.776;2023-01-09T10:12:27;5.00;99.90
38428;DHT22;24211;49.980;19.776;2023-01-09T10:14:58;5.00;99.90
38428;DHT22;24211;49.980;19.776;2023-01-09T10:20:58;5.20;99.90
38428;DHT22;24211;49.980;19.776;2023-01-09T10:23:46;5.20;99.90
38428;DHT22;24211;49.980;19.776;2023-01-09T10:26:50;5.30;99.90
38428;DHT22;24211;49.980;19.776;2023-01-09T10:29:38;5.40;99.90
38428;DHT22;24211;49.980;19.776;2023-01-09T10:36:04;5.50;99.90
38428;DHT22;24211;49.980;19.776;2023-01-09T10:39:01;5.50;99.90
38428;DHT22;24211;49.980;19.776;2023-01-09T10:41:37;5.60;99.90
38428;DHT22;24211;49.980;19.776;2023-01-09T10:44:17;5.70;99.90
38428;DHT22;24211;49.980;19.776;2023-01-09T10:46:53;5.80;99.90
38428;DHT22;24211;49.980;19.776;2023-01-09T10:49:22;5.90;99.90
38428;DHT22;24211;49.980;19.776;2023-01-09T10:52:11;6.00;99.90
38428;DHT22;24211;49.980;19.776;2023-01-09T10:54:54;6.10;99.90
38428;DHT22;24211;49.980;19.776;2023-01-09T11:00:17;6.10;99.90
38428;DHT22;24211;49.980;19.776;2023-01-09T11:02:50;6.20;99.90
38428;DHT22;24211;49.980;19.776;2023-01-09T11:05:29;6.30;99.90
38428;DHT22;24211;49.980;19.776;2023-01-09T11:10:52;6.50;99.90
38428;DHT22;24211;49.980;19.776;2023-01-09T11:13:29;6.50;99.90
38428;DHT22;24211;49.980;19.776;2023-01-09T11:16:13;6.60;99.90
38428;DHT22;24211;49.980;19.776;2023-01-09T11:18:52;6.70;99.90
38428;DHT22;24211;49.980;19.776;2023-01-09T11:26:49;6.80;99.90
38428;DHT22;24211;49.980;19.776;2023-01-09T11:29:20;6.90;99.90
38428;DHT22;24211;49.980;19.776;2023-01-09T11:31:54;6.90;99.90
38428;DHT22;24211;49.980;19.776;2023-01-09T11:34:27;7.00;99.90
38428;DHT22;24211;49.980;19.776;2023-01-09T11:37:09;7.00;99.90
38428;DHT22;24211;49.980;19.776;2023-01-09T11:39:44;7.00;99.90
38428;DHT22;24211;49.980;19.776;2023-01-09T11:42:22;7.10;99.90
38428;DHT22;24211;49.980;19.776;2023-01-09T11:45:26;7.20;99.90
38428;DHT22;24211;49.980;19.776;2023-01-09T11:47:57;7.30;99.90
38428;DHT22;24211;49.980;19.776;2023-01-09T11:50:27;7.30;99.90
38428;DHT22;24211;49.980;19.776;2023-01-09T11:53:18;7.40;99.90
38428;DHT22;24211;49.980;19.776;2023-01-09T11:55:52;7.30;99.90
38428;DHT22;24211;49.980;19.776;2023-01-09T11:58:23;7.40;99.90
38428;DHT22;24211;49.980;19.776;2023-01-09T12:01:05;7.50;99.90
38428;DHT22;24211;49.980;19.776;2023-01-09T12:12:55;7.50;99.90
38428;DHT22;24211;49.980;19.776;2023-01-09T12:16:02;7.60;99.90
38428;DHT22;24211;49.980;19.776;2023-01-09T12:19:03;7.60;99.90
38428;DHT22;24211;49.980;19.776;2023-01-09T12:22:03;7.60;99.90
38428;DHT22;24211;49.980;19.776;2023-01-09T12:25:05;7.60;99.90
38428;DHT22;24211;49.980;19.776;2023-01-09T12:27:55;7.70;99.90
38428;DHT22;24211;49.980;19.776;2023-01-09T12:42:50;7.70;99.90
38428;DHT22;24211;49.980;19.776;2023-01-09T12:45:54;7.70;99.90
38428;DHT22;24211;49.980;19.776;2023-01-09T12:49:06;7.80;99.90
38428;DHT22;24211;49.980;19.776;2023-01-09T12:52:07;7.80;99.90
38428;DHT22;24211;49.980;19.776;2023-01-09T12:54:48;7.80;99.90
38428;DHT22;24211;49.980;19.776;2023-01-09T13:00:15;7.90;99.90
38428;DHT22;24211;49.980;19.776;2023-01-09T13:02:55;8.00;99.90
38428;DHT22;24211;49.980;19.776;2023-01-09T13:05:49;8.00;99.90
38428;DHT22;24211;49.980;19.776;2023-01-09T13:08:36;8.00;99.90
38428;DHT22;24211;49.980;19.776;2023-01-09T13:14:03;8.20;99.90
38428;DHT22;24211;49.980;19.776;2023-01-09T13:16:49;8.20;99.90
38428;DHT22;24211;49.980;19.776;2023-01-09T13:19:28;8.20;99.90
38428;DHT22;24211;49.980;19.776;2023-01-09T13:22:05;8.30;99.90
38428;DHT22;24211;49.980;19.776;2023-01-09T13:24:55;8.40;99.90
38428;DHT22;24211;49.980;19.776;2023-01-09T13:27:55;8.40;99.90
38428;DHT22;24211;49.980;19.776;2023-01-09T13:33:49;8.40;99.90
38428;DHT22;24211;49.980;19.776;2023-01-09T13:36:26;8.40;99.90
38428;DHT22;24211;49.980;19.776;2023-01-09T13:38:57;8.50;99.90
38428;DHT22;24211;49.980;19.776;2023-01-09T13:41:26;8.50;99.90
38428;DHT22;24211;49.980;19.776;2023-01-09T13:46:49;8.40;99.90
38428;DHT22;24211;49.980;19.776;2023-01-09T13:55:24;8.40;99.90
38428;DHT22;24211;49.980;19.776;2023-01-09T14:03:27;8.50;99.90
38428;DHT22;24211;49.980;19.776;2023-01-09T14:08:28;8.50;99.90
38428;DHT22;24211;49.980;19.776;2023-01-09T14:10:59;8.40;99.90
38428;DHT22;24211;49.980;19.776;2023-01-09T14:13:38;8.40;99.90
38428;DHT22;24211;49.980;19.776;2023-01-09T14:16:20;8.40;99.90
38428;DHT22;24211;49.980;19.776;2023-01-09T14:21:21;8.30;99.90
38428;DHT22;24211;49.980;19.776;2023-01-09T14:24:00;8.30;99.90
38428;DHT22;24211;49.980;19.776;2023-01-09T14:26:45;8.30;99.90
38428;DHT22;24211;49.980;19.776;2023-01-09T14:29:37;8.40;99.90
38428;DHT22;24211;49.980;19.776;2023-01-09T14:41:26;8.40;99.90
38428;DHT22;24211;49.980;19.776;2023-01-09T14:47:27;8.40;99.90
38428;DHT22;24211;49.980;19.776;2023-01-09T14:53:12;8.40;99.90
38428;DHT22;24211;49.980;19.776;2023-01-09T14:55:46;8.50;99.90
38428;DHT22;24211;49.980;19.776;2023-01-09T14:58:21;8.50;99.90
38428;DHT22;24211;49.980;19.776;2023-01-09T15:01:00;8.50;99.90
38428;DHT22;24211;49.980;19.776;2023-01-09T15:03:44;8.50;99.90
38428;DHT22;24211;49.980;19.776;2023-01-09T15:06:21;8.60;99.90
38428;DHT22;24211;49.980;19.776;2023-01-09T15:08:56;8.50;99.90
38428;DHT22;24211;49.980;19.776;2023-01-09T15:11:30;8.60;99.90
38428;DHT22;24211;49.980;19.776;2023-01-09T15:13:59;8.60;99.90
38428;DHT22;24211;49.980;19.776;2023-01-09T15:16:31;8.60;99.90
38428;DHT22;24211;49.980;19.776;2023-01-09T15:19:03;8.60;99.90
38428;DHT22;24211;49.980;19.776;2023-01-09T15:21:33;8.70;99.90
38428;DHT22;24211;49.980;19.776;2023-01-09T15:24:21;8.70;99.90
38428;DHT22;24211;49.980;19.776;2023-01-09T15:26:58;8.70;99.90
38428;DHT22;24211;49.980;19.776;2023-01-09T15:29:48;8.80;99.90
38428;DHT22;24211;49.980;19.776;2023-01-09T15:32:25;8.80;99.90
38428;DHT22;24211;49.980;19.776;2023-01-09T15:34:55;8.90;99.90
38428;DHT22;24211;49.980;19.776;2023-01-09T15:37:33;8.90;99.90
38428;DHT22;24211;49.980;19.776;2023-01-09T15:40:07;8.90;99.90
38428;DHT22;24211;49.980;19.776;2023-01-09T15:42:47;9.00;99.90
38428;DHT22;24211;49.980;19.776;2023-01-09T15:45:35;9.00;99.90
38428;DHT22;24211;49.980;19.776;2023-01-09T15:50:49;9.00;99.90
38428;DHT22;24211;49.980;19.776;2023-01-09T15:53:21;9.00;99.90
38428;DHT22;24211;49.980;19.776;2023-01-09T15:56:17;9.00;99.90
38428;DHT22;24211;49.980;19.776;2023-01-09T15:58:54;9.00;99.90
38428;DHT22;24211;49.980;19.776;2023-01-09T16:01:33;9.00;99.90
38428;DHT22;24211;49.980;19.776;2023-01-09T16:04:14;9.00;99.90
38428;DHT22;24211;49.980;19.776;2023-01-09T16:06:48;9.10;99.90
38428;DHT22;24211;49.980;19.776;2023-01-09T16:09:26;9.00;99.90
38428;DHT22;24211;49.980;19.776;2023-01-09T16:12:00;9.00;99.90
38428;DHT22;24211;49.980;19.776;2023-01-09T16:14:39;9.00;99.90
38428;DHT22;24211;49.980;19.776;2023-01-09T16:17:15;9.00;99.90
38428;DHT22;24211;49.980;19.776;2023-01-09T16:19:47;9.10;99.90
38428;DHT22;24211;49.980;19.776;2023-01-09T16:24:54;9.00;99.90
38428;DHT22;24211;49.980;19.776;2023-01-09T16:27:42;9.00;99.90
38428;DHT22;24211;49.980;19.776;2023-01-09T16:30:27;9.00;99.90
38428;DHT22;24211;49.980;19.776;2023-01-09T16:32:54;9.00;99.90
38428;DHT22;24211;49.980;19.776;2023-01-09T16:35:23;8.90;99.90
38428;DHT22;24211;49.980;19.776;2023-01-09T16:37:51;9.00;99.90
38428;DHT22;24211;49.980;19.776;2023-01-09T16:40:26;9.00;99.90
38428;DHT22;24211;49.980;19.776;2023-01-09T16:42:57;9.00;99.90
38428;DHT22;24211;49.980;19.776;2023-01-09T16:45:47;9.00;99.90
38428;DHT22;24211;49.980;19.776;2023-01-09T16:48:15;9.00;99.90
38428;DHT22;24211;49.980;19.776;2023-01-09T16:50:47;9.00;99.90
38428;DHT22;24211;49.980;19.776;2023-01-09T16:53:19;9.00;99.90
38428;DHT22;24211;49.980;19.776;2023-01-09T16:55:52;9.00;99.90
38428;DHT22;24211;49.980;19.776;2023-01-09T16:58:25;9.00;99.90
38428;DHT22;24211;49.980;19.776;2023-01-09T17:00:56;9.00;99.90
38428;DHT22;24211;49.980;19.776;2023-01-09T17:03:24;9.00;99.90
38428;DHT22;24211;49.980;19.776;2023-01-09T17:05:55;9.00;99.90
38428;DHT22;24211;49.980;19.776;2023-01-09T17:08:29;9.00;99.90
38428;DHT22;24211;49.980;19.776;2023-01-09T17:10:58;8.90;99.90
38428;DHT22;24211;49.980;19.776;2023-01-09T17:13:27;9.00;99.90
38428;DHT22;24211;49.980;19.776;2023-01-09T17:15:56;9.00;99.90
38428;DHT22;24211;49.980;19.776;2023-01-09T17:18:26;9.00;99.90
38428;DHT22;24211;49.980;19.776;2023-01-09T17:20:56;9.00;99.90
38428;DHT22;24211;49.980;19.776;2023-01-09T17:23:23;9.00;99.90
38428;DHT22;24211;49.980;19.776;2023-01-09T17:25:57;9.00;99.90
38428;DHT22;24211;49.980;19.776;2023-01-09T17:28:48;8.90;99.90
38428;DHT22;24211;49.980;19.776;2023-01-09T17:31:17;9.00;99.90
38428;DHT22;24211;49.980;19.776;2023-01-09T17:33:45;9.00;99.90
38428;DHT22;24211;49.980;19.776;2023-01-09T17:36:17;8.90;99.90
38428;DHT22;24211;49.980;19.776;2023-01-09T17:38:50;9.00;99.90
38428;DHT22;24211;49.980;19.776;2023-01-09T17:41:22;9.00;99.90
38428;DHT22;24211;49.980;19.776;2023-01-09T17:43:51;9.00;99.90
38428;DHT22;24211;49.980;19.776;2023-01-09T17:46:31;9.00;99.90
38428;DHT22;24211;49.980;19.776;2023-01-09T17:49:01;8.90;99.90
38428;DHT22;24211;49.980;19.776;2023-01-09T17:51:29;9.00;99.90
38428;DHT22;24211;49.980;19.776;2023-01-09T17:53:57;8.90;99.90
38428;DHT22;24211;49.980;19.776;2023-01-09T17:56:28;8.90;99.90
38428;DHT22;24211;49.980;19.776;2023-01-09T17:58:58;8.90;99.90
38428;DHT22;24211;49.980;19.776;2023-01-09T18:01:26;8.90;99.90
38428;DHT22;24211;49.980;19.776;2023-01-09T18:03:53;8.90;99.90
38428;DHT22;24211;49.980;19.776;2023-01-09T18:06:21;8.90;99.90
38428;DHT22;24211;49.980;19.776;2023-01-09T18:08:49;8.90;99.90
38428;DHT22;24211;49.980;19.776;2023-01-09T18:11:18;8.90;99.90
38428;DHT22;24211;49.980;19.776;2023-01-09T18:13:48;8.90;99.90